Time;durP1;ratioP1;P1;durP2;ratioP2;P2;SDS_P1;SDS_P2;PMS_P1;PMS_P2;Temp;Humidity;BMP_temperature;BMP_pressure;BME280_temperature;BME280_humidity;BME280_pressure;Samples;Min_cycle;Max_cycle;Signal;HPM_P1;HPM_P2
2023/06/24 00:01:51;;;;;;;12.32;6.45;;;16.80;99.90;;;;;;4998821;28;20049;-69
2023/06/24 00:04:18;;;;;;;10.50;6.75;;;16.80;99.90;;;;;;5015854;28;20053;-71
2023/06/24 00:06:44;;;;;;;13.98;6.57;;;16.70;99.90;;;;;;4998353;28;20092;-70
2023/06/24 00:09:10;;;;;;;11.93;6.37;;;16.70;99.90;;;;;;4998877;28;20053;-70
2023/06/24 00:11:36;;;;;;;12.68;7.15;;;16.70;99.90;;;;;;5015633;28;20046;-71
2023/06/24 00:14:06;;;;;;;10.95;6.82;;;16.70;99.90;;;;;;5015805;28;20073;-74
2023/06/24 00:16:32;;;;;;;11.60;6.70;;;16.70;99.90;;;;;;4982999;28;20050;-71
2023/06/24 00:19:00;;;;;;;10.93;7.33;;;16.60;99.90;;;;;;5016534;28;20362;-69
2023/06/24 00:21:29;;;;;;;11.75;7.28;;;16.60;99.90;;;;;;4998798;28;20479;-70
2023/06/24 00:23:57;;;;;;;15.02;8.35;;;16.60;99.90;;;;;;5015529;28;20049;-69
2023/06/24 00:26:23;;;;;;;14.05;8.15;;;16.60;99.90;;;;;;4998410;28;20195;-71
2023/06/24 00:28:48;;;;;;;14.77;8.52;;;16.50;99.90;;;;;;4998841;28;20117;-70
2023/06/24 00:31:14;;;;;;;13.88;7.82;;;16.40;99.90;;;;;;5015360;28;20052;-70
2023/06/24 00:33:40;;;;;;;15.60;8.80;;;16.40;99.90;;;;;;4981377;28;20129;-69
2023/06/24 00:36:11;;;;;;;13.97;7.90;;;16.30;99.90;;;;;;5015570;28;20050;-71
2023/06/24 00:38:38;;;;;;;14.52;8.30;;;16.30;99.90;;;;;;5015848;28;20346;-70
2023/06/24 00:41:04;;;;;;;12.00;7.68;;;16.30;99.90;;;;;;5014934;28;20042;-69
2023/06/24 00:43:30;;;;;;;10.55;7.13;;;16.30;99.90;;;;;;5015127;28;20076;-71
2023/06/24 00:45:57;;;;;;;12.07;7.13;;;16.30;99.90;;;;;;4997759;28;20049;-70
2023/06/24 00:48:24;;;;;;;11.48;7.18;;;16.20;99.90;;;;;;4998063;28;20366;-70
2023/06/24 00:50:50;;;;;;;12.00;6.95;;;16.30;99.90;;;;;;4981581;28;20061;-70
2023/06/24 00:53:16;;;;;;;10.45;6.57;;;16.30;99.90;;;;;;4997701;28;20052;-69
2023/06/24 00:55:44;;;;;;;13.15;6.63;;;16.20;99.90;;;;;;5014980;28;20052;-70
2023/06/24 00:58:09;;;;;;;;;;;16.20;99.90;;;;;;4981587;28;20060;-70
2023/06/24 01:00:35;;;;;;;15.70;7.40;;;16.20;99.90;;;;;;4997349;28;19921;-70
2023/06/24 01:03:03;;;;;;;13.38;7.47;;;16.10;99.90;;;;;;4997199;28;20045;-70
2023/06/24 01:05:30;;;;;;;13.85;8.05;;;16.10;99.90;;;;;;4996950;28;20159;-70
2023/06/24 01:07:56;;;;;;;;;;;16.10;99.90;;;;;;4998360;28;20533;-70
2023/06/24 01:10:23;;;;;;;13.20;7.70;;;16.10;99.90;;;;;;5014659;28;20032;-70
2023/06/24 01:12:49;;;;;;;13.65;8.50;;;16.00;99.90;;;;;;5014428;28;20050;-70
2023/06/24 01:15:16;;;;;;;15.60;8.47;;;16.00;99.90;;;;;;5014198;28;20068;-71
2023/06/24 01:17:44;;;;;;;;;;;16.00;99.90;;;;;;5014725;28;20042;-70
2023/06/24 01:20:15;;;;;;;15.80;8.60;;;16.00;99.90;;;;;;5014834;28;20300;-68
2023/06/24 01:22:46;;;;;;;18.20;9.10;;;16.00;99.90;;;;;;4997645;28;20054;-69
2023/06/24 01:25:22;;;;;;;12.25;8.15;;;15.90;99.90;;;;;;5014418;28;20050;-71
2023/06/24 01:27:48;;;;;;;14.50;8.48;;;15.90;99.90;;;;;;5014670;28;20120;-70
2023/06/24 01:31:06;;;;;;;14.43;8.70;;;15.90;99.90;;;;;;5014601;28;20400;-70
2023/06/24 01:34:01;;;;;;;14.38;8.57;;;15.90;99.90;;;;;;4989756;28;20144;-70
2023/06/24 01:36:32;;;;;;;14.00;8.48;;;15.90;99.90;;;;;;4995140;28;20133;-69
2023/06/24 01:39:03;;;;;;;13.52;8.43;;;15.90;99.90;;;;;;5014515;28;20049;-69
2023/06/24 01:41:37;;;;;;;14.43;8.85;;;15.90;99.90;;;;;;4996381;28;20045;-70
2023/06/24 01:44:04;;;;;;;12.93;8.70;;;15.80;99.90;;;;;;5015041;28;20087;-70
2023/06/24 01:46:30;;;;;;;14.35;8.38;;;15.80;99.90;;;;;;5014078;28;20108;-69
2023/06/24 01:49:02;;;;;;;16.30;9.20;;;15.80;99.90;;;;;;5014066;28;20053;-70
2023/06/24 01:51:30;;;;;;;16.80;9.52;;;15.80;99.90;;;;;;5013996;28;20042;-70
2023/06/24 01:54:03;;;;;;;13.98;9.05;;;15.80;99.90;;;;;;5013962;28;20045;-70
2023/06/24 01:56:30;;;;;;;17.95;9.70;;;15.80;99.90;;;;;;4996603;28;20087;-70
2023/06/24 01:59:00;;;;;;;17.08;9.48;;;15.80;99.90;;;;;;5013948;28;20054;-70
2023/06/24 02:01:26;;;;;;;15.80;9.05;;;15.70;99.90;;;;;;5013834;28;20042;-70
2023/06/24 02:03:53;;;;;;;15.98;9.05;;;15.70;99.90;;;;;;5013455;28;20060;-70
2023/06/24 02:06:20;;;;;;;13.60;8.70;;;15.70;99.90;;;;;;5013458;28;20041;-71
2023/06/24 02:08:48;;;;;;;14.32;8.68;;;15.70;99.90;;;;;;5013360;28;20390;-70
2023/06/24 02:11:14;;;;;;;14.70;8.75;;;15.60;99.90;;;;;;5013385;28;20567;-69
2023/06/24 02:13:42;;;;;;;15.50;9.57;;;15.50;99.90;;;;;;4996644;28;20137;-70
2023/06/24 02:16:10;;;;;;;17.67;9.93;;;15.50;99.90;;;;;;5013689;28;20038;-70
2023/06/24 02:18:42;;;;;;;18.77;9.13;;;15.50;99.90;;;;;;4997128;28;20064;-70
2023/06/24 02:21:09;;;;;;;15.80;9.55;;;15.50;99.90;;;;;;4997058;28;20481;-70
2023/06/24 02:23:37;;;;;;;15.13;8.98;;;15.50;99.90;;;;;;4979792;28;20046;-70
2023/06/24 02:26:05;;;;;;;12.95;8.30;;;15.50;99.90;;;;;;4996635;28;20073;-70
2023/06/24 02:28:32;;;;;;;19.05;8.88;;;15.50;99.90;;;;;;5013407;28;20044;-70
2023/06/24 02:30:59;;;;;;;16.25;9.15;;;15.40;99.90;;;;;;5013610;28;20041;-69
2023/06/24 02:33:26;;;;;;;16.45;9.63;;;15.40;99.90;;;;;;4996588;28;20067;-69
2023/06/24 02:35:52;;;;;;;;;;;15.40;99.90;;;;;;5018421;28;20122;-70
2023/06/24 02:38:18;;;;;;;14.93;9.05;;;15.40;99.90;;;;;;5000556;28;19922;-69
2023/06/24 02:40:45;;;;;;;17.05;9.63;;;15.30;99.90;;;;;;5000034;28;20072;-70
2023/06/24 02:43:11;;;;;;;15.10;9.75;;;15.30;99.90;;;;;;5017392;28;20057;-70
2023/06/24 02:45:38;;;;;;;18.50;9.77;;;15.20;99.90;;;;;;4999744;28;20076;-70
2023/06/24 02:48:05;;;;;;;16.65;9.30;;;15.20;99.90;;;;;;4999818;28;20054;-70
2023/06/24 02:50:33;;;;;;;16.83;10.05;;;15.20;99.90;;;;;;4999685;28;20045;-70
2023/06/24 02:52:59;;;;;;;17.15;10.02;;;15.20;99.90;;;;;;5017508;28;20050;-71
2023/06/24 02:55:26;;;;;;;16.48;10.38;;;15.20;99.90;;;;;;4999225;28;20050;-70
2023/06/24 02:57:53;;;;;;;;;;;15.10;99.90;;;;;;4983504;28;20057;-69
2023/06/24 03:00:20;;;;;;;16.65;10.15;;;15.10;99.90;;;;;;5016729;28;20373;-71
2023/06/24 03:02:47;;;;;;;14.70;9.55;;;15.10;99.90;;;;;;5016849;28;20093;-70
2023/06/24 03:05:15;;;;;;;16.77;10.32;;;15.10;99.90;;;;;;4999497;28;20085;-70
2023/06/24 03:07:42;;;;;;;17.20;10.38;;;15.10;99.90;;;;;;4999332;28;20418;-70
2023/06/24 03:10:08;;;;;;;17.17;10.15;;;15.00;99.90;;;;;;4983462;28;20045;-71
2023/06/24 03:12:34;;;;;;;18.73;10.30;;;15.00;99.90;;;;;;5017565;28;20042;-71
2023/06/24 03:15:02;;;;;;;16.90;10.60;;;15.00;99.90;;;;;;4999294;28;20544;-70
2023/06/24 03:17:29;;;;;;;16.95;10.80;;;15.00;99.90;;;;;;5016933;28;20049;-71
2023/06/24 03:19:55;;;;;;;17.52;10.38;;;15.00;99.90;;;;;;5016789;28;20052;-71
2023/06/24 03:22:22;;;;;;;18.60;10.38;;;15.00;99.90;;;;;;4983657;28;20465;-71
2023/06/24 03:24:48;;;;;;;;;;;15.00;99.90;;;;;;5017044;28;20501;-71
2023/06/24 03:27:14;;;;;;;;;;;15.00;99.90;;;;;;5016961;28;19967;-71
2023/06/24 03:29:40;;;;;;;18.27;10.03;;;15.00;99.90;;;;;;5016435;28;20013;-71
2023/06/24 03:32:06;;;;;;;18.48;11.02;;;15.00;99.90;;;;;;4982892;28;20505;-71
2023/06/24 03:34:32;;;;;;;23.37;11.20;;;15.00;99.90;;;;;;4998815;28;20087;-71
2023/06/24 03:36:57;;;;;;;20.70;11.35;;;15.00;99.90;;;;;;4983711;28;20371;-71
2023/06/24 03:39:23;;;;;;;21.83;11.02;;;15.00;99.90;;;;;;4983048;28;20049;-71
2023/06/24 03:41:49;;;;;;;19.17;10.40;;;15.00;99.90;;;;;;4983515;28;20046;-71
2023/06/24 03:44:15;;;;;;;19.58;11.10;;;15.10;99.90;;;;;;4998786;28;20156;-71
2023/06/24 03:46:41;;;;;;;19.35;10.93;;;15.20;99.90;;;;;;4982516;28;20123;-71
2023/06/24 03:49:07;;;;;;;20.20;11.25;;;15.30;99.90;;;;;;4982525;28;20042;-71
2023/06/24 03:51:32;;;;;;;18.93;10.27;;;15.40;99.90;;;;;;4998592;28;20152;-72
2023/06/24 03:53:58;;;;;;;19.10;11.25;;;15.50;99.90;;;;;;5016124;28;20054;-71
2023/06/24 03:56:24;;;;;;;17.38;10.35;;;15.50;99.90;;;;;;4998840;28;20046;-70
2023/06/24 03:58:50;;;;;;;18.13;10.90;;;15.60;99.90;;;;;;5016391;28;20393;-70
2023/06/24 04:01:18;;;;;;;20.00;10.73;;;15.60;99.90;;;;;;5016342;28;20393;-71
2023/06/24 04:03:45;;;;;;;15.82;9.90;;;15.60;99.90;;;;;;4998997;28;20049;-71
2023/06/24 04:06:11;;;;;;;18.65;9.85;;;15.60;99.90;;;;;;5015938;28;20057;-72
2023/06/24 04:08:39;;;;;;;19.17;10.63;;;15.70;99.90;;;;;;5015702;28;20038;-71
2023/06/24 04:11:06;;;;;;;18.27;10.60;;;15.70;99.90;;;;;;5015797;28;20050;-72
2023/06/24 04:13:33;;;;;;;17.45;10.55;;;15.70;99.90;;;;;;4998495;28;20093;-71
2023/06/24 04:15:58;;;;;;;21.20;11.00;;;15.80;99.90;;;;;;4999246;28;20061;-71
2023/06/24 04:18:24;;;;;;;18.55;11.38;;;15.80;99.90;;;;;;4998717;28;20046;-70
2023/06/24 04:20:50;;;;;;;20.37;12.63;;;15.90;99.90;;;;;;5015550;28;20132;-70
2023/06/24 04:23:16;;;;;;;20.30;11.82;;;16.00;99.90;;;;;;5015613;28;20188;-70
2023/06/24 04:25:42;;;;;;;18.43;11.20;;;16.10;99.90;;;;;;5015556;28;20138;-72
2023/06/24 04:28:08;;;;;;;19.13;11.67;;;16.10;99.90;;;;;;4997780;28;20052;-71
2023/06/24 04:30:38;;;;;;;19.13;11.02;;;16.20;99.90;;;;;;5015375;28;20053;-71
2023/06/24 04:33:04;;;;;;;18.40;11.25;;;16.30;99.90;;;;;;5015368;28;20187;-71
2023/06/24 04:35:30;;;;;;;19.30;12.15;;;16.30;99.90;;;;;;4998123;28;20406;-70
2023/06/24 04:37:56;;;;;;;19.63;11.40;;;16.30;99.90;;;;;;4997775;28;20104;-72
2023/06/24 04:40:22;;;;;;;19.05;11.82;;;16.30;99.90;;;;;;4997818;28;20081;-71
2023/06/24 04:42:48;;;;;;;19.30;11.73;;;16.40;99.90;;;;;;5015241;28;20045;-70
2023/06/24 04:45:13;;;;;;;18.45;11.20;;;16.40;99.90;;;;;;4997394;28;20125;-71
2023/06/24 04:47:39;;;;;;;23.70;12.35;;;16.40;99.90;;;;;;4997565;28;20045;-72
2023/06/24 04:50:06;;;;;;;20.35;12.13;;;16.40;99.90;;;;;;4997488;28;20058;-72
2023/06/24 04:52:32;;;;;;;18.98;11.95;;;16.50;99.90;;;;;;4981464;28;20052;-69
2023/06/24 04:54:57;;;;;;;22.83;12.93;;;16.50;99.90;;;;;;4997248;28;20132;-72
2023/06/24 04:57:28;;;;;;;22.33;12.00;;;16.60;99.90;;;;;;5014437;28;20140;-71
2023/06/24 04:59:54;;;;;;;26.50;13.15;;;16.60;99.90;;;;;;4997302;28;20100;-70
2023/06/24 05:02:20;;;;;;;21.77;13.65;;;16.70;99.90;;;;;;4997150;28;20108;-70
2023/06/24 05:04:46;;;;;;;21.65;12.52;;;16.70;99.90;;;;;;4997815;28;20371;-71
2023/06/24 05:07:12;;;;;;;23.10;12.77;;;16.80;99.90;;;;;;4997406;28;20051;-70
2023/06/24 05:09:38;;;;;;;20.40;12.53;;;16.90;99.90;;;;;;5014622;28;20037;-71
2023/06/24 05:12:05;;;;;;;24.50;12.90;;;16.90;99.90;;;;;;4996871;28;20531;-71
2023/06/24 05:14:31;;;;;;;21.45;12.65;;;17.00;99.90;;;;;;5014268;28;20049;-72
2023/06/24 05:16:56;;;;;;;21.52;13.13;;;17.10;99.90;;;;;;5014286;28;20125;-72
2023/06/24 05:19:22;;;;;;;23.97;12.93;;;17.10;99.90;;;;;;5014726;28;20045;-70
2023/06/24 05:21:48;;;;;;;22.42;12.82;;;17.30;99.90;;;;;;5014679;28;20046;-70
2023/06/24 05:24:14;;;;;;;20.48;12.52;;;17.40;99.90;;;;;;5014562;28;20046;-70
2023/06/24 05:26:39;;;;;;;21.97;12.47;;;17.60;99.90;;;;;;4996824;28;20132;-72
2023/06/24 05:29:05;;;;;;;19.80;12.45;;;17.60;99.90;;;;;;4996601;28;20176;-70
2023/06/24 05:31:31;;;;;;;20.87;12.67;;;17.80;99.90;;;;;;4996925;28;20046;-70
2023/06/24 05:33:56;;;;;;;19.97;12.53;;;17.80;99.90;;;;;;5014724;28;20563;-71
2023/06/24 05:36:22;;;;;;;20.30;12.20;;;17.90;99.90;;;;;;4996982;28;20128;-70
2023/06/24 05:38:48;;;;;;;20.42;12.27;;;18.00;99.90;;;;;;5014640;28;20041;-72
2023/06/24 05:41:14;;;;;;;17.07;11.50;;;18.00;99.90;;;;;;4980669;28;20374;-69
2023/06/24 05:43:43;;;;;;;17.45;11.00;;;18.10;99.90;;;;;;5014084;28;20062;-69
2023/06/24 05:46:09;;;;;;;19.40;11.38;;;18.20;99.90;;;;;;4996883;28;20049;-70
2023/06/24 05:48:34;;;;;;;16.80;10.90;;;18.30;99.90;;;;;;4980285;28;20042;-69
2023/06/24 05:51:00;;;;;;;16.53;10.20;;;18.30;99.90;;;;;;4980402;28;20128;-70
2023/06/24 05:53:26;;;;;;;17.85;11.27;;;18.40;99.90;;;;;;5013843;28;20042;-70
2023/06/24 05:55:52;;;;;;;16.50;11.00;;;18.50;99.90;;;;;;4996950;28;20056;-70
2023/06/24 05:58:17;;;;;;;18.40;11.20;;;18.50;99.90;;;;;;4996152;28;20096;-69
2023/06/24 06:00:43;;;;;;;16.60;10.90;;;18.60;99.90;;;;;;4996533;28;20091;-69
2023/06/24 06:03:09;;;;;;;18.20;11.17;;;18.70;99.90;;;;;;4997225;28;20057;-71
2023/06/24 06:05:35;;;;;;;17.43;11.23;;;18.70;99.90;;;;;;4980337;28;20046;-70
2023/06/24 06:08:01;;;;;;;15.30;10.80;;;18.90;99.90;;;;;;5013960;28;20226;-70
2023/06/24 06:10:26;;;;;;;19.97;11.03;;;18.90;99.90;;;;;;4995887;28;20434;-70
2023/06/24 06:12:53;;;;;;;17.47;10.10;;;19.10;99.90;;;;;;5013709;28;20103;-69
2023/06/24 06:15:19;;;;;;;17.02;10.77;;;19.10;99.90;;;;;;5013598;28;20049;-71
2023/06/24 06:17:46;;;;;;;18.90;10.82;;;19.20;99.90;;;;;;5013722;28;20121;-70
2023/06/24 06:20:12;;;;;;;17.60;10.65;;;19.20;99.90;;;;;;4996016;28;20397;-71
2023/06/24 06:22:38;;;;;;;17.30;10.27;;;19.30;99.90;;;;;;5013484;28;20053;-72
2023/06/24 06:25:07;;;;;;;14.18;9.40;;;19.30;99.90;;;;;;5013806;28;20038;-69
2023/06/24 06:27:33;;;;;;;17.52;10.05;;;19.40;99.90;;;;;;5013508;28;20049;-71
2023/06/24 06:29:59;;;;;;;17.60;9.63;;;19.50;99.90;;;;;;4980673;28;20038;-70
2023/06/24 06:32:25;;;;;;;14.37;8.97;;;19.60;99.90;;;;;;4980530;28;20050;-70
2023/06/24 06:34:51;;;;;;;16.80;8.93;;;19.70;99.90;;;;;;4996099;28;20465;-70
2023/06/24 06:37:16;;;;;;;14.77;8.87;;;19.80;99.90;;;;;;4995764;28;20482;-71
2023/06/24 06:39:42;;;;;;;13.53;8.40;;;20.00;99.90;;;;;;4980417;28;20120;-70
2023/06/24 06:42:08;;;;;;;16.10;8.47;;;20.10;99.90;;;;;;5013288;28;20489;-70
2023/06/24 06:44:34;;;;;;;14.57;8.53;;;20.20;99.90;;;;;;4996294;28;20128;-70
2023/06/24 06:46:59;;;;;;;15.23;8.47;;;20.30;99.90;;;;;;5013187;28;20052;-70
2023/06/24 06:49:25;;;;;;;14.87;8.33;;;20.40;99.90;;;;;;4995642;28;20363;-71
2023/06/24 06:51:55;;;;;;;12.80;7.83;;;20.50;99.90;;;;;;4979773;28;20046;-70
2023/06/24 06:54:20;;;;;;;15.80;8.35;;;20.50;99.90;;;;;;5013292;28;20053;-71
2023/06/24 06:56:46;;;;;;;13.60;8.67;;;20.60;99.90;;;;;;4995610;28;20478;-71
2023/06/24 06:59:12;;;;;;;17.10;9.10;;;20.70;99.90;;;;;;4995982;28;20050;-70
2023/06/24 07:01:38;;;;;;;17.00;9.63;;;20.80;99.90;;;;;;4996215;28;20042;-71
2023/06/24 07:04:05;;;;;;;17.50;9.00;;;20.90;99.90;;;;;;4979031;28;20498;-74
2023/06/24 07:06:32;;;;;;;14.73;9.10;;;21.00;99.90;;;;;;4980480;28;20381;-70
2023/06/24 07:08:58;;;;;;;15.70;9.70;;;21.10;99.90;;;;;;4996033;28;20046;-71
2023/06/24 07:11:24;;;;;;;18.77;10.35;;;21.20;99.90;;;;;;4995784;28;20508;-71
2023/06/24 07:13:51;;;;;;;15.33;9.77;;;21.30;99.90;;;;;;5013214;28;20056;-72
2023/06/24 07:16:17;;;;;;;15.63;9.55;;;21.30;99.90;;;;;;4996507;28;20133;-71
2023/06/24 07:18:43;;;;;;;;;;;21.50;99.90;;;;;;5013441;28;20046;-72
2023/06/24 07:21:09;;;;;;;17.48;9.80;;;21.60;99.90;;;;;;4999190;28;19922;-70
2023/06/24 07:23:35;;;;;;;14.83;9.87;;;21.80;99.90;;;;;;5016635;28;20054;-71
2023/06/24 07:26:00;;;;;;;19.07;10.17;;;21.90;99.90;;;;;;4983164;28;20057;-71
2023/06/24 07:28:26;;;;;;;17.47;10.13;;;22.00;99.90;;;;;;5016424;28;20112;-71
2023/06/24 07:30:52;;;;;;;17.00;10.10;;;22.00;99.90;;;;;;4983015;28;20054;-71
2023/06/24 07:33:17;;;;;;;17.77;10.03;;;22.20;99.90;;;;;;4998898;28;20046;-72
2023/06/24 07:35:43;;;;;;;16.73;9.83;;;22.20;99.90;;;;;;4982803;28;20046;-71
2023/06/24 07:38:09;;;;;;;16.23;9.67;;;22.30;99.90;;;;;;4982910;28;20394;-73
2023/06/24 07:40:35;;;;;;;17.13;9.87;;;22.40;99.90;;;;;;4998720;28;20184;-71
2023/06/24 07:43:01;;;;;;;17.27;9.80;;;22.50;99.90;;;;;;4998724;28;20054;-71
2023/06/24 07:45:26;;;;;;;14.43;9.70;;;22.60;99.90;;;;;;5016073;28;20042;-71
2023/06/24 07:47:52;;;;;;;18.57;9.57;;;22.70;99.90;;;;;;4982354;28;20046;-71
2023/06/24 07:50:18;;;;;;;13.37;8.83;;;22.80;99.90;;;;;;4983219;28;20042;-72
2023/06/24 07:52:43;;;;;;;14.83;8.50;;;22.90;99.90;;;;;;4998879;28;20053;-70
2023/06/24 07:55:10;;;;;;;15.30;8.90;;;23.10;99.90;;;;;;4982387;28;20285;-70
2023/06/24 07:57:36;;;;;;;15.88;8.30;;;23.20;99.90;;;;;;4982378;28;20137;-72
2023/06/24 08:00:03;;;;;;;17.47;8.57;;;23.40;99.90;;;;;;5015805;28;20464;-71
2023/06/24 08:02:28;;;;;;;;;;;23.50;99.90;;;;;;5016193;28;20046;-71
2023/06/24 08:04:54;;;;;;;15.05;9.30;;;23.60;99.90;;;;;;4999180;28;19943;-72
2023/06/24 08:07:20;;;;;;;14.60;8.17;;;23.70;99.90;;;;;;5015642;28;20046;-71
2023/06/24 08:09:46;;;;;;;15.60;9.57;;;23.90;99.90;;;;;;4981887;28;20341;-71
2023/06/24 08:12:11;;;;;;;15.83;8.60;;;24.00;99.90;;;;;;5015555;28;20133;-71
2023/06/24 08:14:37;;;;;;;15.53;9.07;;;24.00;99.90;;;;;;4981957;28;20045;-70
2023/06/24 08:17:03;;;;;;;15.03;8.47;;;24.00;99.90;;;;;;5015574;28;20042;-70
2023/06/24 08:19:29;;;;;;;15.00;9.05;;;23.90;99.90;;;;;;5016258;28;20057;-72
2023/06/24 08:21:55;;;;;;;14.50;8.97;;;23.90;99.90;;;;;;5015574;28;20053;-70
2023/06/24 08:24:20;;;;;;;15.90;8.87;;;23.90;99.90;;;;;;4997972;28;20288;-72
2023/06/24 08:26:46;;;;;;;16.60;10.33;;;24.00;99.90;;;;;;4998165;28;20057;-70
2023/06/24 08:29:12;;;;;;;14.43;8.50;;;24.00;99.90;;;;;;5015153;28;20060;-70
2023/06/24 08:31:37;;;;;;;15.73;8.50;;;24.10;99.90;;;;;;5014568;28;20049;-72
2023/06/24 08:34:05;;;;;;;14.63;7.63;;;24.00;99.90;;;;;;4998024;28;20053;-72
2023/06/24 08:36:30;;;;;;;16.58;7.43;;;24.00;99.90;;;;;;4998005;28;20129;-72
2023/06/24 08:38:56;;;;;;;14.27;7.53;;;24.00;99.90;;;;;;5015301;28;20129;-72
2023/06/24 08:41:24;;;;;;;12.15;6.75;;;24.00;99.90;;;;;;4997629;28;20505;-72
2023/06/24 08:43:51;;;;;;;11.85;6.50;;;24.10;99.90;;;;;;5015008;28;20486;-72
2023/06/24 08:46:19;;;;;;;10.70;6.05;;;24.10;99.90;;;;;;4997783;28;20057;-71
2023/06/24 08:48:47;;;;;;;11.10;5.88;;;24.10;99.90;;;;;;4997676;28;20129;-71
2023/06/24 08:51:16;;;;;;;11.45;5.63;;;24.10;99.90;;;;;;4982235;28;20136;-71
2023/06/24 08:53:43;;;;;;;11.90;5.90;;;24.10;99.90;;;;;;4981764;28;20049;-72
2023/06/24 08:56:10;;;;;;;10.65;5.60;;;24.20;99.90;;;;;;5014994;28;20398;-72
2023/06/24 08:58:36;;;;;;;12.18;5.13;;;24.30;99.90;;;;;;4980953;28;20054;-72
2023/06/24 09:01:02;;;;;;;7.47;3.97;;;24.40;99.90;;;;;;5014857;28;20046;-73
2023/06/24 09:03:28;;;;;;;12.18;4.30;;;24.60;99.90;;;;;;5014606;28;20129;-72
2023/06/24 09:05:54;;;;;;;8.00;4.07;;;24.70;99.90;;;;;;5014844;28;20096;-72
2023/06/24 09:08:22;;;;;;;9.45;4.97;;;24.70;99.90;;;;;;5014633;28;20100;-72
2023/06/24 09:10:54;;;;;;;10.50;5.05;;;24.80;99.90;;;;;;4982332;28;20052;-72
2023/06/24 09:13:20;;;;;;;12.48;4.82;;;24.80;99.90;;;;;;5014332;28;20061;-73
2023/06/24 09:15:45;;;;;;;8.27;4.57;;;24.80;99.90;;;;;;4998140;28;20046;-72
2023/06/24 09:18:11;;;;;;;8.20;4.57;;;24.90;99.90;;;;;;4981009;28;20073;-72
2023/06/24 09:20:44;;;;;;;6.93;3.38;;;24.90;99.90;;;;;;4997133;28;20046;-72
2023/06/24 09:23:10;;;;;;;8.98;3.00;;;24.90;99.90;;;;;;4998048;28;20184;-71
2023/06/24 09:25:36;;;;;;;6.70;3.00;;;25.00;99.90;;;;;;5014407;28;20121;-72
2023/06/24 09:28:03;;;;;;;;;;;25.00;99.90;;;;;;4997474;28;20038;-73
2023/06/24 09:30:29;;;;;;;8.00;2.45;;;25.00;99.90;;;;;;5015079;28;19921;-72
2023/06/24 09:32:56;;;;;;;7.88;2.70;;;25.00;99.90;;;;;;5014364;28;20068;-72
2023/06/24 09:35:24;;;;;;;7.15;3.53;;;25.00;99.90;;;;;;4981022;28;20050;-72
2023/06/24 09:37:59;;;;;;;5.75;2.80;;;25.00;99.90;;;;;;4997025;28;20042;-71
2023/06/24 09:40:25;;;;;;;5.72;2.47;;;25.10;99.90;;;;;;4997758;28;20046;-72
2023/06/24 09:42:56;;;;;;;6.17;2.47;;;25.20;99.90;;;;;;4980338;28;20405;-73
2023/06/24 09:45:26;;;;;;;7.05;3.38;;;25.20;99.90;;;;;;5013719;28;20537;-73
2023/06/24 09:47:52;;;;;;;6.78;3.72;;;25.30;99.90;;;;;;4996407;28;20085;-72
2023/06/24 09:50:18;;;;;;;;;;;25.40;99.90;;;;;;4996876;28;20042;-72
2023/06/24 09:52:45;;;;;;;7.82;3.70;;;25.40;99.90;;;;;;5014068;28;19925;-72
2023/06/24 09:55:16;;;;;;;7.30;3.30;;;25.40;99.90;;;;;;5013706;28;20482;-71
2023/06/24 09:57:49;;;;;;;8.93;3.85;;;25.50;99.90;;;;;;4995968;28;20125;-72
2023/06/24 10:00:18;;;;;;;7.90;4.28;;;25.50;99.90;;;;;;5015001;28;20445;-73
2023/06/24 10:02:45;;;;;;;6.65;3.97;;;25.60;99.90;;;;;;4996584;28;20580;-73
2023/06/24 10:05:15;;;;;;;8.32;4.38;;;25.70;99.90;;;;;;4980464;28;20045;-72
2023/06/24 10:07:41;;;;;;;9.23;4.50;;;25.70;99.90;;;;;;4996588;28;20057;-72
2023/06/24 10:10:07;;;;;;;;;;;25.80;99.90;;;;;;4996298;28;20509;-72
2023/06/24 10:12:35;;;;;;;7.47;4.53;;;25.70;99.90;;;;;;4996607;28;19922;-72
2023/06/24 10:15:01;;;;;;;9.95;4.47;;;25.70;99.90;;;;;;4996351;28;20052;-72
2023/06/24 10:17:27;;;;;;;11.35;4.88;;;25.80;99.90;;;;;;4996002;28;20053;-73
2023/06/24 10:19:54;;;;;;;9.48;4.93;;;25.90;99.90;;;;;;4996080;28;20050;-71
2023/06/24 10:22:26;;;;;;;10.43;5.13;;;25.90;99.90;;;;;;4997223;28;20374;-74
2023/06/24 10:24:52;;;;;;;10.32;5.85;;;25.70;99.90;;;;;;4980518;28;20042;-73
2023/06/24 10:27:24;;;;;;;9.77;4.93;;;25.70;99.80;;;;;;4980033;28;20057;-72
2023/06/24 10:29:51;;;;;;;8.77;4.60;;;25.70;99.90;;;;;;4980092;28;20541;-71
2023/06/24 10:32:18;;;;;;;8.45;4.25;;;25.90;99.90;;;;;;4997046;28;20360;-72
2023/06/24 10:34:46;;;;;;;9.93;4.72;;;25.90;99.90;;;;;;5013472;28;20050;-72
2023/06/24 10:37:32;;;;;;;11.80;4.70;;;25.90;99.90;;;;;;5013382;28;20085;-72
2023/06/24 10:39:59;;;;;;;9.65;5.15;;;25.90;99.40;;;;;;4979511;28;20477;-72
2023/06/24 10:42:38;;;;;;;9.30;3.88;;;25.90;98.80;;;;;;4995810;28;20061;-75
2023/06/24 10:45:10;;;;;;;7.85;3.28;;;26.00;99.90;;;;;;4995622;28;20536;-71
2023/06/24 10:47:38;;;;;;;7.60;3.08;;;26.20;98.20;;;;;;4995427;28;20498;-72
2023/06/24 10:50:05;;;;;;;6.88;3.40;;;26.40;99.30;;;;;;5013362;28;20038;-73
2023/06/24 10:52:31;;;;;;;6.55;3.63;;;26.50;99.20;;;;;;4979672;28;20050;-72
2023/06/24 10:54:58;;;;;;;7.50;3.67;;;26.50;99.10;;;;;;4980260;28;20061;-72
2023/06/24 10:57:29;;;;;;;7.85;3.58;;;26.50;98.80;;;;;;4994236;28;20502;-72
2023/06/24 10:59:56;;;;;;;7.55;3.10;;;26.50;97.90;;;;;;4948925;28;20386;-72
2023/06/24 11:02:24;;;;;;;5.78;3.03;;;26.50;95.60;;;;;;4997546;28;20046;-71
2023/06/24 11:04:54;;;;;;;6.75;3.00;;;26.50;97.10;;;;;;4980139;28;20086;-72
2023/06/24 11:07:22;;;;;;;6.43;3.40;;;26.70;97.50;;;;;;4964506;28;20050;-72
2023/06/24 11:09:50;;;;;;;6.00;3.47;;;26.80;96.80;;;;;;4979659;28;20069;-74
2023/06/24 11:12:16;;;;;;;5.60;2.38;;;26.70;96.80;;;;;;4979886;28;20061;-72
2023/06/24 11:14:41;;;;;;;6.63;2.80;;;26.60;97.20;;;;;;4963961;28;20051;-71
2023/06/24 11:17:07;;;;;;;7.50;3.37;;;26.50;97.00;;;;;;4980040;28;20285;-72
2023/06/24 11:19:33;;;;;;;5.10;2.70;;;26.30;95.90;;;;;;4979917;28;20284;-72
2023/06/24 11:22:00;;;;;;;6.35;3.10;;;26.40;96.50;;;;;;4963495;28;20308;-72
2023/06/24 11:24:30;;;;;;;5.97;2.78;;;26.60;96.20;;;;;;4979772;28;20054;-72
2023/06/24 11:26:56;;;;;;;7.38;3.22;;;26.80;96.30;;;;;;4963715;28;20085;-72
2023/06/24 11:29:23;;;;;;;9.45;3.28;;;27.00;96.10;;;;;;4997355;28;20053;-72
2023/06/24 11:31:50;;;;;;;7.00;2.95;;;27.30;96.20;;;;;;4964380;28;20197;-73
2023/06/24 11:34:15;;;;;;;7.05;3.15;;;27.40;95.60;;;;;;4963327;28;20141;-73
2023/06/24 11:36:42;;;;;;;8.20;3.60;;;27.60;95.90;;;;;;4996691;28;20166;-72
2023/06/24 11:39:07;;;;;;;9.43;3.42;;;27.60;94.20;;;;;;4996857;28;20045;-72
2023/06/24 11:41:33;;;;;;;9.85;4.20;;;27.80;95.60;;;;;;4963217;28;20050;-74
2023/06/24 11:43:59;;;;;;;6.82;3.45;;;27.90;95.10;;;;;;4996271;28;20046;-73
2023/06/24 11:46:26;;;;;;;5.25;2.72;;;28.00;94.70;;;;;;4997176;28;20046;-72
2023/06/24 11:48:53;;;;;;;10.23;2.97;;;28.10;94.30;;;;;;4979286;28;20501;-72
2023/06/24 11:51:19;;;;;;;6.22;2.75;;;28.20;94.50;;;;;;4996127;28;20053;-72
2023/06/24 11:53:46;;;;;;;;;;;28.20;94.50;;;;;;4979515;28;20050;-72
2023/06/24 11:56:12;;;;;;;6.70;2.67;;;28.30;92.70;;;;;;4978956;28;19948;-73
2023/06/24 11:58:38;;;;;;;;;;;28.50;93.40;;;;;;5012454;28;20056;-72
2023/06/24 12:01:06;;;;;;;;;;;28.70;93.90;;;;;;4999261;28;20012;-74
2023/06/24 12:03:33;;;;;;;6.40;2.67;;;28.80;92.60;;;;;;5015867;28;19922;-71
2023/06/24 12:06:00;;;;;;;6.25;2.80;;;28.70;92.30;;;;;;5014941;28;20057;-72
2023/06/24 12:08:26;;;;;;;7.60;3.20;;;28.60;93.20;;;;;;4998614;28;20042;-71
2023/06/24 12:10:52;;;;;;;6.28;3.20;;;28.40;93.00;;;;;;5015743;28;20116;-72
2023/06/24 12:13:17;;;;;;;9.68;3.20;;;28.20;93.20;;;;;;4998339;28;20084;-71
2023/06/24 12:15:43;;;;;;;9.40;3.28;;;28.00;92.80;;;;;;4999055;28;20447;-73
2023/06/24 12:18:09;;;;;;;7.70;3.20;;;28.20;93.20;;;;;;4998799;28;20511;-70
2023/06/24 12:20:36;;;;;;;5.93;3.28;;;28.30;92.90;;;;;;5015484;28;20442;-72
2023/06/24 12:23:05;;;;;;;6.55;3.47;;;28.20;92.70;;;;;;4981555;28;20498;-72
2023/06/24 12:25:31;;;;;;;6.38;3.30;;;28.20;92.80;;;;;;4998187;28;20046;-72
2023/06/24 12:27:59;;;;;;;7.43;3.25;;;27.80;92.40;;;;;;4998762;28;20085;-73
2023/06/24 12:30:25;;;;;;;8.02;3.60;;;27.80;92.80;;;;;;4998095;28;20050;-75
2023/06/24 12:32:51;;;;;;;7.45;3.42;;;27.50;92.30;;;;;;4997753;28;20068;-73
2023/06/24 12:35:17;;;;;;;8.10;3.53;;;27.50;92.60;;;;;;4998173;28;20449;-72
2023/06/24 12:37:44;;;;;;;5.43;3.20;;;27.30;92.40;;;;;;4997907;28;20133;-72
2023/06/24 12:40:11;;;;;;;12.60;3.60;;;27.30;92.90;;;;;;5015250;28;20050;-73